Time;durP1;ratioP1;P1;durP2;ratioP2;P2;SDS_P1;SDS_P2;PMS_P1;PMS_P2;Temp;Humidity;BMP_temperature;BMP_pressure;BME280_temperature;BME280_humidity;BME280_pressure;Samples;Min_cycle;Max_cycle;Signal;HPM_P1;HPM_P2
2022/09/13 00:00:00;;;;;;;0.2;0.2;;;;;;;19.8;100.0;100750;;;;
2022/09/13 00:01:00;;;;;;;0.2;0.2;;;;;;;19.8;100.0;100750;;;;
2022/09/13 00:02:00;;;;;;;0.2;0.2;;;;;;;19.7;100.0;100750;;;;
2022/09/13 00:03:00;;;;;;;0.2;0.2;;;;;;;19.7;100.0;100750;;;;
2022/09/13 00:04:00;;;;;;;0.2;0.2;;;;;;;19.7;100.0;100750;;;;
2022/09/13 00:05:00;;;;;;;0.2;0.2;;;;;;;19.7;100.0;100750;;;;
2022/09/13 00:06:08;;;;;;;0.2;0.2;;;;;;;19.8;100.0;100750;;;;
2022/09/13 00:07:00;;;;;;;0.2;0.2;;;;;;;19.8;100.0;100750;;;;
2022/09/13 00:08:00;;;;;;;0.2;0.2;;;;;;;19.7;100.0;100750;;;;
2022/09/13 00:09:00;;;;;;;0.2;0.2;;;;;;;19.7;100.0;100750;;;;
2022/09/13 00:10:00;;;;;;;0.2;0.2;;;;;;;19.8;100.0;100750;;;;
2022/09/13 00:11:00;;;;;;;0.2;0.2;;;;;;;19.8;100.0;100750;;;;
2022/09/13 00:12:00;;;;;;;0.2;0.2;;;;;;;19.7;100.0;100750;;;;
2022/09/13 00:13:00;;;;;;;0.2;0.2;;;;;;;19.7;100.0;100750;;;;
2022/09/13 00:14:01;;;;;;;0.2;0.2;;;;;;;19.7;100.0;100740;;;;
2022/09/13 00:15:00;;;;;;;0.2;0.2;;;;;;;19.7;100.0;100740;;;;
2022/09/13 00:16:02;;;;;;;0.2;0.2;;;;;;;19.7;100.0;100750;;;;
2022/09/13 00:17:00;;;;;;;0.2;0.2;;;;;;;19.7;100.0;100750;;;;
2022/09/13 00:18:00;;;;;;;0.2;0.2;;;;;;;19.7;100.0;100750;;;;
2022/09/13 00:19:00;;;;;;;0.2;0.2;;;;;;;19.7;100.0;100750;;;;
2022/09/13 00:20:00;;;;;;;0.2;0.2;;;;;;;19.7;100.0;100740;;;;
2022/09/13 00:21:09;;;;;;;0.2;0.2;;;;;;;19.7;100.0;100740;;;;
2022/09/13 00:22:00;;;;;;;0.2;0.2;;;;;;;19.7;100.0;100740;;;;
2022/09/13 00:23:00;;;;;;;0.2;0.2;;;;;;;19.7;100.0;100740;;;;
2022/09/13 00:24:00;;;;;;;0.2;0.2;;;;;;;19.7;100.0;100740;;;;
2022/09/13 00:25:00;;;;;;;0.2;0.2;;;;;;;19.7;100.0;100740;;;;
2022/09/13 00:26:02;;;;;;;0.2;0.2;;;;;;;19.7;100.0;100740;;;;
2022/09/13 00:27:00;;;;;;;0.2;0.2;;;;;;;19.7;100.0;100740;;;;
2022/09/13 00:28:00;;;;;;;0.6;0.4;;;;;;;19.6;100.0;100730;;;;
2022/09/13 00:29:00;;;;;;;0.6;0.4;;;;;;;19.6;100.0;100730;;;;
2022/09/13 00:30:00;;;;;;;0.6;0.4;;;;;;;19.7;100.0;100730;;;;
2022/09/13 00:31:01;;;;;;;0.6;0.4;;;;;;;19.7;100.0;100730;;;;
2022/09/13 00:32:00;;;;;;;0.6;0.4;;;;;;;19.6;100.0;100730;;;;
2022/09/13 00:33:03;;;;;;;0.6;0.4;;;;;;;19.6;100.0;100730;;;;
2022/09/13 00:34:00;;;;;;;0.6;0.4;;;;;;;19.6;100.0;100720;;;;
2022/09/13 00:35:01;;;;;;;0.6;0.4;;;;;;;19.6;100.0;100720;;;;
2022/09/13 00:36:04;;;;;;;0.6;0.4;;;;;;;19.6;100.0;100720;;;;
2022/09/13 00:37:00;;;;;;;0.6;0.4;;;;;;;19.6;100.0;100720;;;;
2022/09/13 00:38:00;;;;;;;0.6;0.4;;;;;;;19.5;100.0;100720;;;;
2022/09/13 00:39:00;;;;;;;0.6;0.4;;;;;;;19.5;100.0;100720;;;;
2022/09/13 00:40:00;;;;;;;0.6;0.4;;;;;;;19.6;100.0;100720;;;;
2022/09/13 00:41:00;;;;;;;0.6;0.4;;;;;;;19.6;100.0;100720;;;;
2022/09/13 00:42:00;;;;;;;0.6;0.4;;;;;;;19.5;100.0;100720;;;;
2022/09/13 00:43:00;;;;;;;0.6;0.4;;;;;;;19.5;100.0;100720;;;;
2022/09/13 00:44:00;;;;;;;0.6;0.4;;;;;;;19.5;100.0;100710;;;;
2022/09/13 00:45:02;;;;;;;0.6;0.4;;;;;;;19.5;100.0;100710;;;;
2022/09/13 00:46:00;;;;;;;0.6;0.4;;;;;;;19.5;100.0;100710;;;;
2022/09/13 00:47:00;;;;;;;0.6;0.4;;;;;;;19.5;100.0;100710;;;;
2022/09/13 00:48:03;;;;;;;0.3;0.3;;;;;;;19.4;100.0;100710;;;;
2022/09/13 00:49:03;;;;;;;0.3;0.3;;;;;;;19.4;100.0;100710;;;;
2022/09/13 00:50:04;;;;;;;0.3;0.3;;;;;;;19.5;100.0;100700;;;;
2022/09/13 00:51:01;;;;;;;0.3;0.3;;;;;;;19.5;100.0;100700;;;;
2022/09/13 00:52:02;;;;;;;0.3;0.3;;;;;;;19.5;100.0;100700;;;;
2022/09/13 00:53:02;;;;;;;0.3;0.3;;;;;;;19.5;100.0;100700;;;;
2022/09/13 00:54:01;;;;;;;0.3;0.3;;;;;;;19.5;100.0;100700;;;;
2022/09/13 00:55:03;;;;;;;0.3;0.3;;;;;;;19.5;100.0;100700;;;;
2022/09/13 00:56:02;;;;;;;0.3;0.3;;;;;;;19.5;100.0;100700;;;;
2022/09/13 00:57:01;;;;;;;0.3;0.3;;;;;;;19.5;100.0;100700;;;;
2022/09/13 00:58:03;;;;;;;0.3;0.3;;;;;;;19.4;100.0;100700;;;;
2022/09/13 00:59:01;;;;;;;0.3;0.3;;;;;;;19.4;100.0;100700;;;;
2022/09/13 01:00:08;;;;;;;0.3;0.3;;;;;;;19.4;100.0;100690;;;;
2022/09/13 01:01:02;;;;;;;0.3;0.3;;;;;;;19.4;100.0;100690;;;;
2022/09/13 01:02:00;;;;;;;0.3;0.3;;;;;;;19.4;100.0;100700;;;;
2022/09/13 01:03:03;;;;;;;0.3;0.3;;;;;;;19.4;100.0;100700;;;;
2022/09/13 01:04:02;;;;;;;0.3;0.3;;;;;;;19.4;100.0;100690;;;;
2022/09/13 01:05:00;;;;;;;0.3;0.3;;;;;;;19.4;100.0;100690;;;;
2022/09/13 01:06:04;;;;;;;0.3;0.3;;;;;;;19.4;100.0;100700;;;;
2022/09/13 01:07:02;;;;;;;0.3;0.3;;;;;;;19.4;100.0;100700;;;;
2022/09/13 01:08:00;;;;;;;0.4;0.4;;;;;;;19.4;100.0;100700;;;;
2022/09/13 01:09:03;;;;;;;0.4;0.4;;;;;;;19.4;100.0;100700;;;;
2022/09/13 01:10:02;;;;;;;0.4;0.4;;;;;;;19.5;100.0;100700;;;;
2022/09/13 01:11:03;;;;;;;0.4;0.4;;;;;;;19.5;100.0;100700;;;;
2022/09/13 01:12:07;;;;;;;0.4;0.4;;;;;;;19.4;100.0;100700;;;;
2022/09/13 01:13:10;;;;;;;0.4;0.4;;;;;;;19.4;100.0;100700;;;;
2022/09/13 01:14:00;;;;;;;0.4;0.4;;;;;;;19.4;100.0;100690;;;;
2022/09/13 01:15:00;;;;;;;0.4;0.4;;;;;;;19.4;100.0;100690;;;;
2022/09/13 01:16:00;;;;;;;0.4;0.4;;;;;;;19.4;100.0;100690;;;;
2022/09/13 01:17:00;;;;;;;0.4;0.4;;;;;;;19.4;100.0;100690;;;;
2022/09/13 01:18:00;;;;;;;0.4;0.4;;;;;;;19.3;100.0;100690;;;;
2022/09/13 01:19:00;;;;;;;0.4;0.4;;;;;;;19.3;100.0;100690;;;;
2022/09/13 01:20:01;;;;;;;0.4;0.4;;;;;;;19.3;100.0;100700;;;;
2022/09/13 01:21:11;;;;;;;0.4;0.4;;;;;;;19.3;100.0;100700;;;;
2022/09/13 01:22:11;;;;;;;0.4;0.4;;;;;;;19.3;100.0;100700;;;;
2022/09/13 01:23:10;;;;;;;0.4;0.4;;;;;;;19.3;100.0;100700;;;;
2022/09/13 01:24:10;;;;;;;0.4;0.4;;;;;;;19.3;100.0;100700;;;;
2022/09/13 01:25:07;;;;;;;0.4;0.4;;;;;;;19.3;100.0;100700;;;;
2022/09/13 01:26:10;;;;;;;0.4;0.4;;;;;;;19.3;100.0;100700;;;;
2022/09/13 01:27:03;;;;;;;0.4;0.4;;;;;;;19.3;100.0;100700;;;;
2022/09/13 01:28:10;;;;;;;0.3;0.3;;;;;;;19.3;100.0;100700;;;;
2022/09/13 01:29:07;;;;;;;0.3;0.3;;;;;;;19.4;100.0;100700;;;;
2022/09/13 01:30:10;;;;;;;0.3;0.3;;;;;;;19.4;100.0;100700;;;;
2022/09/13 01:31:06;;;;;;;0.3;0.3;;;;;;;19.3;100.0;100700;;;;
2022/09/13 01:32:10;;;;;;;0.3;0.3;;;;;;;19.3;100.0;100700;;;;
2022/09/13 01:33:10;;;;;;;0.3;0.3;;;;;;;19.4;100.0;100700;;;;
2022/09/13 01:34:03;;;;;;;0.3;0.3;;;;;;;19.4;100.0;100700;;;;
2022/09/13 01:35:10;;;;;;;0.3;0.3;;;;;;;19.3;100.0;100700;;;;
2022/09/13 01:36:10;;;;;;;0.3;0.3;;;;;;;19.3;100.0;100700;;;;
2022/09/13 01:37:10;;;;;;;0.3;0.3;;;;;;;19.2;100.0;100710;;;;
2022/09/13 01:38:01;;;;;;;0.3;0.3;;;;;;;19.2;100.0;100710;;;;
2022/09/13 01:39:01;;;;;;;0.3;0.3;;;;;;;19.2;100.0;100710;;;;
2022/09/13 01:40:10;;;;;;;0.3;0.3;;;;;;;19.2;100.0;100700;;;;
2022/09/13 01:41:05;;;;;;;0.3;0.3;;;;;;;19.2;100.0;100700;;;;
2022/09/13 01:42:06;;;;;;;0.3;0.3;;;;;;;19.2;100.0;100700;;;;
2022/09/13 01:43:07;;;;;;;0.3;0.3;;;;;;;19.2;100.0;100700;;;;
2022/09/13 01:44:00;;;;;;;0.3;0.3;;;;;;;19.2;100.0;100700;;;;
2022/09/13 01:45:10;;;;;;;0.3;0.3;;;;;;;19.2;100.0;100700;;;;
2022/09/13 01:46:05;;;;;;;0.3;0.3;;;;;;;19.2;100.0;100700;;;;
2022/09/13 01:47:10;;;;;;;0.3;0.3;;;;;;;19.2;100.0;100700;;;;
2022/09/13 01:48:05;;;;;;;0.3;0.3;;;;;;;19.2;100.0;100700;;;;
2022/09/13 01:49:10;;;;;;;0.3;0.3;;;;;;;19.3;100.0;100690;;;;
2022/09/13 01:50:10;;;;;;;0.3;0.3;;;;;;;19.3;100.0;100690;;;;
2022/09/13 01:51:03;;;;;;;0.3;0.3;;;;;;;19.3;100.0;100690;;;;
2022/09/13 01:52:00;;;;;;;0.3;0.3;;;;;;;19.2;100.0;100690;;;;
2022/09/13 01:53:10;;;;;;;0.3;0.3;;;;;;;19.2;100.0;100690;;;;
2022/09/13 01:54:00;;;;;;;0.3;0.3;;;;;;;19.2;100.0;100690;;;;
2022/09/13 01:55:01;;;;;;;0.3;0.3;;;;;;;19.2;100.0;100690;;;;
2022/09/13 01:56:03;;;;;;;0.3;0.3;;;;;;;19.2;100.0;100690;;;;
2022/09/13 01:57:10;;;;;;;0.3;0.3;;;;;;;19.3;100.0;100690;;;;
2022/09/13 01:58:03;;;;;;;0.3;0.3;;;;;;;19.3;100.0;100690;;;;
2022/09/13 01:59:04;;;;;;;0.3;0.3;;;;;;;19.3;100.0;100690;;;;
2022/09/13 02:00:03;;;;;;;0.3;0.3;;;;;;;19.3;100.0;100690;;;;
2022/09/13 02:01:08;;;;;;;0.3;0.3;;;;;;;19.2;100.0;100690;;;;
2022/09/13 02:02:04;;;;;;;0.3;0.3;;;;;;;19.2;100.0;100690;;;;
2022/09/13 02:03:03;;;;;;;0.3;0.3;;;;;;;19.2;100.0;100690;;;;
2022/09/13 02:04:11;;;;;;;0.3;0.3;;;;;;;19.3;100.0;100690;;;;
2022/09/13 02:05:06;;;;;;;0.3;0.3;;;;;;;19.2;100.0;100690;;;;
2022/09/13 02:06:05;;;;;;;0.3;0.3;;;;;;;19.2;100.0;100690;;;;
2022/09/13 02:07:03;;;;;;;0.3;0.3;;;;;;;19.2;100.0;100690;;;;
2022/09/13 02:08:03;;;;;;;0.6;0.6;;;;;;;19.2;100.0;100690;;;;
2022/09/13 02:09:02;;;;;;;0.6;0.6;;;;;;;19.2;100.0;100690;;;;
2022/09/13 02:10:05;;;;;;;0.6;0.6;;;;;;;19.3;100.0;100680;;;;
2022/09/13 02:11:05;;;;;;;0.6;0.6;;;;;;;19.3;100.0;100680;;;;
2022/09/13 02:12:04;;;;;;;0.6;0.6;;;;;;;19.3;100.0;100680;;;;
2022/09/13 02:13:01;;;;;;;0.6;0.6;;;;;;;19.3;100.0;100680;;;;
2022/09/13 02:14:06;;;;;;;0.6;0.6;;;;;;;19.2;100.0;100680;;;;
2022/09/13 02:15:00;;;;;;;0.6;0.6;;;;;;;19.2;100.0;100680;;;;
2022/09/13 02:16:05;;;;;;;0.6;0.6;;;;;;;19.3;100.0;100680;;;;
2022/09/13 02:17:04;;;;;;;0.6;0.6;;;;;;;19.3;100.0;100680;;;;
2022/09/13 02:18:05;;;;;;;0.6;0.6;;;;;;;19.3;100.0;100690;;;;
2022/09/13 02:19:04;;;;;;;0.6;0.6;;;;;;;19.3;100.0;100690;;;;
2022/09/13 02:20:02;;;;;;;0.6;0.6;;;;;;;19.2;100.0;100680;;;;
2022/09/13 02:21:04;;;;;;;0.6;0.6;;;;;;;19.2;100.0;100680;;;;
2022/09/13 02:22:02;;;;;;;0.6;0.6;;;;;;;19.3;100.0;100690;;;;
2022/09/13 02:23:02;;;;;;;0.6;0.6;;;;;;;19.3;100.0;100690;;;;
2022/09/13 02:24:02;;;;;;;0.6;0.6;;;;;;;19.2;100.0;100690;;;;
2022/09/13 02:25:09;;;;;;;0.6;0.6;;;;;;;19.2;100.0;100680;;;;
2022/09/13 02:26:00;;;;;;;0.6;0.6;;;;;;;19.2;100.0;100680;;;;
2022/09/13 02:27:04;;;;;;;0.6;0.6;;;;;;;19.2;100.0;100680;;;;
2022/09/13 02:28:02;;;;;;;0.6;0.6;;;;;;;19.3;100.0;100680;;;;
2022/09/13 02:29:03;;;;;;;0.6;0.6;;;;;;;19.3;100.0;100680;;;;
2022/09/13 02:30:03;;;;;;;0.6;0.6;;;;;;;19.3;100.0;100680;;;;
2022/09/13 02:31:01;;;;;;;0.6;0.6;;;;;;;19.3;100.0;100680;;;;
2022/09/13 02:32:05;;;;;;;0.6;0.6;;;;;;;19.2;100.0;100670;;;;
2022/09/13 02:33:00;;;;;;;0.6;0.6;;;;;;;19.2;100.0;100670;;;;
2022/09/13 02:34:02;;;;;;;0.6;0.6;;;;;;;19.2;100.0;100680;;;;
2022/09/13 02:35:04;;;;;;;0.6;0.6;;;;;;;19.2;100.0;100680;;;;
2022/09/13 02:36:09;;;;;;;0.6;0.6;;;;;;;19.2;100.0;100680;;;;
2022/09/13 02:37:00;;;;;;;0.6;0.6;;;;;;;19.2;100.0;100680;;;;
2022/09/13 02:38:04;;;;;;;0.6;0.6;;;;;;;19.2;100.0;100680;;;;
2022/09/13 02:39:02;;;;;;;0.6;0.6;;;;;;;19.2;100.0;100680;;;;
2022/09/13 02:40:03;;;;;;;0.6;0.6;;;;;;;19.2;100.0;100680;;;;
2022/09/13 02:41:05;;;;;;;0.6;0.6;;;;;;;19.2;100.0;100680;;;;
2022/09/13 02:42:12;;;;;;;0.6;0.6;;;;;;;19.2;100.0;100680;;;;
2022/09/13 02:43:03;;;;;;;0.6;0.6;;;;;;;19.2;100.0;100680;;;;
2022/09/13 02:44:10;;;;;;;0.6;0.6;;;;;;;19.2;100.0;100680;;;;
2022/09/13 02:45:00;;;;;;;0.6;0.6;;;;;;;19.2;100.0;100680;;;;
2022/09/13 02:46:09;;;;;;;0.6;0.6;;;;;;;19.2;100.0;100680;;;;
2022/09/13 02:47:09;;;;;;;0.6;0.6;;;;;;;19.2;100.0;100680;;;;
2022/09/13 02:48:03;;;;;;;0.9;0.8;;;;;;;19.2;100.0;100680;;;;
2022/09/13 02:49:10;;;;;;;0.9;0.8;;;;;;;19.1;100.0;100680;;;;
2022/09/13 02:50:00;;;;;;;0.9;0.8;;;;;;;19.1;100.0;100680;;;;
2022/09/13 02:51:06;;;;;;;0.9;0.8;;;;;;;19.1;100.0;100690;;;;
2022/09/13 02:52:01;;;;;;;0.9;0.8;;;;;;;19.1;100.0;100690;;;;
2022/09/13 02:53:03;;;;;;;0.9;0.8;;;;;;;19.1;100.0;100690;;;;
2022/09/13 02:54:04;;;;;;;0.9;0.8;;;;;;;19.1;100.0;100690;;;;
2022/09/13 02:55:00;;;;;;;0.9;0.8;;;;;;;19.1;100.0;100690;;;;
2022/09/13 02:56:05;;;;;;;0.9;0.8;;;;;;;19.1;100.0;100690;;;;
2022/09/13 02:57:04;;;;;;;0.9;0.8;;;;;;;19.1;100.0;100690;;;;
2022/09/13 02:58:10;;;;;;;0.9;0.8;;;;;;;19.1;100.0;100700;;;;
2022/09/13 02:59:04;;;;;;;0.9;0.8;;;;;;;19.1;100.0;100700;;;;
2022/09/13 03:00:00;;;;;;;0.9;0.8;;;;;;;19.1;100.0;100700;;;;
2022/09/13 03:01:00;;;;;;;0.9;0.8;;;;;;;19.1;100.0;100700;;;;
2022/09/13 03:02:10;;;;;;;0.9;0.8;;;;;;;19.1;100.0;100700;;;;
2022/09/13 03:03:03;;;;;;;0.9;0.8;;;;;;;19.1;100.0;100700;;;;
2022/09/13 03:04:00;;;;;;;0.9;0.8;;;;;;;19.0;100.0;100700;;;;
2022/09/13 03:05:01;;;;;;;0.9;0.8;;;;;;;19.0;100.0;100700;;;;
2022/09/13 03:06:00;;;;;;;0.9;0.8;;;;;;;19.1;100.0;100700;;;;
2022/09/13 03:07:02;;;;;;;0.9;0.8;;;;;;;19.1;100.0;100700;;;;
2022/09/13 03:08:00;;;;;;;0.4;0.4;;;;;;;19.1;100.0;100700;;;;
2022/09/13 03:09:03;;;;;;;0.4;0.4;;;;;;;19.1;100.0;100700;;;;
2022/09/13 03:10:04;;;;;;;0.4;0.4;;;;;;;19.0;100.0;100700;;;;
2022/09/13 03:11:10;;;;;;;0.4;0.4;;;;;;;19.0;100.0;100710;;;;
2022/09/13 03:12:10;;;;;;;0.4;0.4;;;;;;;19.0;100.0;100710;;;;
2022/09/13 03:13:09;;;;;;;0.4;0.4;;;;;;;19.0;100.0;100700;;;;
2022/09/13 03:14:07;;;;;;;0.4;0.4;;;;;;;19.0;100.0;100700;;;;
2022/09/13 03:15:10;;;;;;;0.4;0.4;;;;;;;19.0;100.0;100700;;;;
2022/09/13 03:16:09;;;;;;;0.4;0.4;;;;;;;19.0;100.0;100700;;;;
2022/09/13 03:17:10;;;;;;;0.4;0.4;;;;;;;19.0;100.0;100700;;;;
2022/09/13 03:18:10;;;;;;;0.4;0.4;;;;;;;19.0;100.0;100700;;;;
2022/09/13 03:19:09;;;;;;;0.4;0.4;;;;;;;19.0;100.0;100700;;;;
2022/09/13 03:20:08;;;;;;;0.4;0.4;;;;;;;19.0;100.0;100700;;;;
2022/09/13 03:21:06;;;;;;;0.4;0.4;;;;;;;19.0;100.0;100700;;;;
2022/09/13 03:22:10;;;;;;;0.4;0.4;;;;;;;19.0;100.0;100700;;;;
2022/09/13 03:23:10;;;;;;;0.4;0.4;;;;;;;19.0;100.0;100700;;;;
2022/09/13 03:24:08;;;;;;;0.4;0.4;;;;;;;19.0;100.0;100700;;;;
2022/09/13 03:25:03;;;;;;;0.4;0.4;;;;;;;19.0;100.0;100700;;;;
2022/09/13 03:26:07;;;;;;;0.4;0.4;;;;;;;19.0;100.0;100700;;;;
2022/09/13 03:27:10;;;;;;;0.4;0.4;;;;;;;19.0;100.0;100700;;;;
2022/09/13 03:28:03;;;;;;;0.6;0.6;;;;;;;19.0;100.0;100700;;;;
2022/09/13 03:29:08;;;;;;;0.6;0.6;;;;;;;19.0;100.0;100700;;;;
2022/09/13 03:30:01;;;;;;;0.6;0.6;;;;;;;19.0;100.0;100700;;;;
2022/09/13 03:31:05;;;;;;;0.6;0.6;;;;;;;19.0;100.0;100700;;;;
2022/09/13 03:32:05;;;;;;;0.6;0.6;;;;;;;18.9;100.0;100690;;;;
2022/09/13 03:33:03;;;;;;;0.6;0.6;;;;;;;18.9;100.0;100690;;;;
2022/09/13 03:34:07;;;;;;;0.6;0.6;;;;;;;18.9;100.0;100690;;;;
2022/09/13 03:35:10;;;;;;;0.6;0.6;;;;;;;18.9;100.0;100690;;;;
2022/09/13 03:36:00;;;;;;;0.6;0.6;;;;;;;18.9;100.0;100690;;;;
2022/09/13 03:37:10;;;;;;;0.6;0.6;;;;;;;18.9;100.0;100680;;;;
2022/09/13 03:38:04;;;;;;;0.6;0.6;;;;;;;18.9;100.0;100680;;;;
2022/09/13 03:39:06;;;;;;;0.6;0.6;;;;;;;18.9;100.0;100690;;;;
2022/09/13 03:40:09;;;;;;;0.6;0.6;;;;;;;18.9;100.0;100690;;;;
2022/09/13 03:41:05;;;;;;;0.6;0.6;;;;;;;18.9;100.0;100690;;;;
2022/09/13 03:42:04;;;;;;;0.6;0.6;;;;;;;18.8;100.0;100690;;;;
2022/09/13 03:43:10;;;;;;;0.6;0.6;;;;;;;18.8;100.0;100690;;;;
2022/09/13 03:44:03;;;;;;;0.6;0.6;;;;;;;18.8;100.0;100690;;;;
2022/09/13 03:45:02;;;;;;;0.6;0.6;;;;;;;18.8;100.0;100690;;;;
2022/09/13 03:46:04;;;;;;;0.6;0.6;;;;;;;18.7;100.0;100690;;;;
2022/09/13 03:47:01;;;;;;;0.6;0.6;;;;;;;18.7;100.0;100690;;;;
2022/09/13 03:48:01;;;;;;;0.3;0.3;;;;;;;18.8;100.0;100680;;;;
2022/09/13 03:49:03;;;;;;;0.3;0.3;;;;;;;18.8;100.0;100680;;;;
2022/09/13 03:50:00;;;;;;;0.3;0.3;;;;;;;18.8;100.0;100680;;;;
2022/09/13 03:51:00;;;;;;;0.3;0.3;;;;;;;18.8;100.0;100680;;;;
2022/09/13 03:52:00;;;;;;;0.3;0.3;;;;;;;18.8;100.0;100670;;;;
2022/09/13 03:53:03;;;;;;;0.3;0.3;;;;;;;18.8;100.0;100670;;;;
2022/09/13 03:54:02;;;;;;;0.3;0.3;;;;;;;18.8;100.0;100680;;;;
2022/09/13 03:55:00;;;;;;;0.3;0.3;;;;;;;18.8;100.0;100680;;;;
2022/09/13 03:56:00;;;;;;;0.3;0.3;;;;;;;18.7;100.0;100680;;;;
2022/09/13 03:57:08;;;;;;;0.3;0.3;;;;;;;18.6;100.0;100680;;;;
2022/09/13 03:58:00;;;;;;;0.3;0.3;;;;;;;18.6;100.0;100680;;;;
2022/09/13 03:59:00;;;;;;;0.3;0.3;;;;;;;18.6;100.0;100680;;;;
2022/09/13 04:00:00;;;;;;;0.3;0.3;;;;;;;18.6;100.0;100680;;;;
2022/09/13 04:01:00;;;;;;;0.3;0.3;;;;;;;18.6;100.0;100680;;;;
2022/09/13 04:02:00;;;;;;;0.3;0.3;;;;;;;18.7;100.0;100680;;;;
2022/09/13 04:03:00;;;;;;;0.3;0.3;;;;;;;18.7;100.0;100680;;;;
2022/09/13 04:04:00;;;;;;;0.3;0.3;;;;;;;18.6;100.0;100690;;;;
2022/09/13 04:05:00;;;;;;;0.3;0.3;;;;;;;18.6;100.0;100690;;;;
2022/09/13 04:06:00;;;;;;;0.3;0.3;;;;;;;18.6;100.0;100690;;;;
2022/09/13 04:07:03;;;;;;;0.3;0.3;;;;;;;18.6;100.0;100690;;;;
2022/09/13 04:08:00;;;;;;;0.9;0.9;;;;;;;18.6;100.0;100690;;;;
2022/09/13 04:09:00;;;;;;;0.9;0.9;;;;;;;18.6;100.0;100690;;;;
2022/09/13 04:10:00;;;;;;;0.9;0.9;;;;;;;18.7;100.0;100690;;;;
2022/09/13 04:11:00;;;;;;;0.9;0.9;;;;;;;18.7;100.0;100690;;;;
2022/09/13 04:12:00;;;;;;;0.9;0.9;;;;;;;18.6;100.0;100690;;;;
2022/09/13 04:13:00;;;;;;;0.9;0.9;;;;;;;18.6;100.0;100690;;;;
2022/09/13 04:14:00;;;;;;;0.9;0.9;;;;;;;18.5;100.0;100700;;;;
2022/09/13 04:15:00;;;;;;;0.9;0.9;;;;;;;18.5;100.0;100700;;;;
2022/09/13 04:16:01;;;;;;;0.9;0.9;;;;;;;18.5;100.0;100700;;;;
2022/09/13 04:17:00;;;;;;;0.9;0.9;;;;;;;18.5;100.0;100700;;;;
2022/09/13 04:18:00;;;;;;;0.9;0.9;;;;;;;18.5;100.0;100700;;;;
2022/09/13 04:19:00;;;;;;;0.9;0.9;;;;;;;18.5;100.0;100700;;;;
2022/09/13 04:20:00;;;;;;;0.9;0.9;;;;;;;18.6;100.0;100710;;;;
2022/09/13 04:21:00;;;;;;;0.9;0.9;;;;;;;18.6;100.0;100710;;;;
2022/09/13 04:22:00;;;;;;;0.9;0.9;;;;;;;18.6;100.0;100710;;;;
2022/09/13 04:23:00;;;;;;;0.9;0.9;;;;;;;18.6;100.0;100710;;;;
2022/09/13 04:24:00;;;;;;;0.9;0.9;;;;;;;18.6;100.0;100710;;;;
2022/09/13 04:25:02;;;;;;;0.9;0.9;;;;;;;18.6;100.0;100710;;;;
2022/09/13 04:26:03;;;;;;;0.9;0.9;;;;;;;18.6;100.0;100710;;;;
2022/09/13 04:27:00;;;;;;;0.9;0.9;;;;;;;18.6;100.0;100710;;;;
2022/09/13 04:28:00;;;;;;;0.3;0.3;;;;;;;18.6;100.0;100720;;;;
2022/09/13 04:29:00;;;;;;;0.3;0.3;;;;;;;18.6;100.0;100720;;;;
2022/09/13 04:30:00;;;;;;;0.3;0.3;;;;;;;18.5;100.0;100720;;;;
2022/09/13 04:31:00;;;;;;;0.3;0.3;;;;;;;18.5;100.0;100720;;;;
2022/09/13 04:32:00;;;;;;;0.3;0.3;;;;;;;18.5;100.0;100720;;;;
2022/09/13 04:33:00;;;;;;;0.3;0.3;;;;;;;18.5;100.0;100720;;;;
2022/09/13 04:34:00;;;;;;;0.3;0.3;;;;;;;18.5;100.0;100720;;;;
2022/09/13 04:35:00;;;;;;;0.3;0.3;;;;;;;18.5;100.0;100720;;;;
2022/09/13 04:36:00;;;;;;;0.3;0.3;;;;;;;18.6;100.0;100720;;;;
2022/09/13 04:37:00;;;;;;;0.3;0.3;;;;;;;18.6;100.0;100720;;;;
2022/09/13 04:38:00;;;;;;;0.3;0.3;;;;;;;18.5;100.0;100720;;;;
2022/09/13 04:39:00;;;;;;;0.3;0.3;;;;;;;18.5;100.0;100720;;;;
2022/09/13 04:40:00;;;;;;;0.3;0.3;;;;;;;18.6;100.0;100720;;;;
2022/09/13 04:41:00;;;;;;;0.3;0.3;;;;;;;18.6;100.0;100720;;;;
2022/09/13 04:42:01;;;;;;;0.3;0.3;;;;;;;18.6;100.0;100720;;;;
2022/09/13 04:43:00;;;;;;;0.3;0.3;;;;;;;18.6;100.0;100720;;;;
2022/09/13 04:44:00;;;;;;;0.3;0.3;;;;;;;18.5;100.0;100720;;;;
2022/09/13 04:45:00;;;;;;;0.3;0.3;;;;;;;18.5;100.0;100720;;;;
2022/09/13 04:46:00;;;;;;;0.3;0.3;;;;;;;18.6;100.0;100720;;;;
2022/09/13 04:47:00;;;;;;;0.3;0.3;;;;;;;18.6;100.0;100720;;;;
2022/09/13 04:48:00;;;;;;;0.5;0.5;;;;;;;18.7;100.0;100730;;;;
2022/09/13 04:49:00;;;;;;;0.5;0.5;;;;;;;18.7;100.0;100730;;;;
2022/09/13 04:50:00;;;;;;;0.5;0.5;;;;;;;18.6;100.0;100730;;;;
2022/09/13 04:51:01;;;;;;;0.5;0.5;;;;;;;18.6;100.0;100730;;;;
2022/09/13 04:52:00;;;;;;;0.5;0.5;;;;;;;18.6;100.0;100720;;;;
2022/09/13 04:53:01;;;;;;;0.5;0.5;;;;;;;18.6;100.0;100720;;;;
2022/09/13 04:54:00;;;;;;;0.5;0.5;;;;;;;18.6;100.0;100730;;;;
2022/09/13 04:55:00;;;;;;;0.5;0.5;;;;;;;18.6;100.0;100730;;;;
2022/09/13 04:56:01;;;;;;;0.5;0.5;;;;;;;18.6;100.0;100720;;;;
2022/09/13 04:57:00;;;;;;;0.5;0.5;;;;;;;18.6;100.0;100720;;;;
2022/09/13 04:58:00;;;;;;;0.5;0.5;;;;;;;18.6;100.0;100720;;;;
2022/09/13 04:59:00;;;;;;;0.5;0.5;;;;;;;18.6;100.0;100720;;;;
2022/09/13 05:00:00;;;;;;;0.5;0.5;;;;;;;18.6;100.0;100720;;;;
2022/09/13 05:01:01;;;;;;;0.5;0.5;;;;;;;18.6;100.0;100720;;;;
2022/09/13 05:02:00;;;;;;;0.5;0.5;;;;;;;18.6;100.0;100720;;;;
2022/09/13 05:03:00;;;;;;;0.5;0.5;;;;;;;18.6;100.0;100720;;;;
2022/09/13 05:04:00;;;;;;;0.5;0.5;;;;;;;18.5;100.0;100720;;;;
2022/09/13 05:05:00;;;;;;;0.5;0.5;;;;;;;18.5;100.0;100720;;;;
2022/09/13 05:06:04;;;;;;;0.5;0.5;;;;;;;18.5;100.0;100730;;;;
2022/09/13 05:07:00;;;;;;;0.5;0.5;;;;;;;18.5;100.0;100730;;;;
2022/09/13 05:08:00;;;;;;;6.2;1.4;;;;;;;18.6;100.0;100730;;;;
2022/09/13 05:09:00;;;;;;;6.2;1.4;;;;;;;18.6;100.0;100730;;;;
2022/09/13 05:10:00;;;;;;;6.2;1.4;;;;;;;18.6;100.0;100730;;;;
2022/09/13 05:11:00;;;;;;;6.2;1.4;;;;;;;18.6;100.0;100730;;;;
2022/09/13 05:12:00;;;;;;;6.2;1.4;;;;;;;18.6;100.0;100730;;;;
2022/09/13 05:13:00;;;;;;;6.2;1.4;;;;;;;18.6;100.0;100730;;;;
2022/09/13 05:14:00;;;;;;;6.2;1.4;;;;;;;18.5;100.0;100730;;;;
2022/09/13 05:15:00;;;;;;;6.2;1.4;;;;;;;18.5;100.0;100730;;;;
2022/09/13 05:16:02;;;;;;;6.2;1.4;;;;;;;18.5;100.0;100740;;;;
2022/09/13 05:17:00;;;;;;;6.2;1.4;;;;;;;18.5;100.0;100740;;;;
2022/09/13 05:18:00;;;;;;;6.2;1.4;;;;;;;18.5;100.0;100740;;;;
2022/09/13 05:19:00;;;;;;;6.2;1.4;;;;;;;18.5;100.0;100740;;;;
2022/09/13 05:20:00;;;;;;;6.2;1.4;;;;;;;18.6;100.0;100740;;;;
2022/09/13 05:21:01;;;;;;;6.2;1.4;;;;;;;18.6;100.0;100740;;;;
2022/09/13 05:22:00;;;;;;;6.2;1.4;;;;;;;18.6;100.0;100730;;;;
2022/09/13 05:23:00;;;;;;;6.2;1.4;;;;;;;18.6;100.0;100730;;;;
2022/09/13 05:24:00;;;;;;;6.2;1.4;;;;;;;18.6;100.0;100730;;;;
2022/09/13 05:25:00;;;;;;;6.2;1.4;;;;;;;18.6;100.0;100730;;;;
2022/09/13 05:26:01;;;;;;;6.2;1.4;;;;;;;18.6;100.0;100730;;;;
2022/09/13 05:27:00;;;;;;;6.2;1.4;;;;;;;18.6;100.0;100730;;;;
2022/09/13 05:28:00;;;;;;;0.5;0.5;;;;;;;18.7;100.0;100730;;;;
2022/09/13 05:29:00;;;;;;;0.5;0.5;;;;;;;18.7;100.0;100730;;;;
2022/09/13 05:30:00;;;;;;;0.5;0.5;;;;;;;18.6;100.0;100730;;;;
2022/09/13 05:31:01;;;;;;;0.5;0.5;;;;;;;18.6;100.0;100730;;;;
2022/09/13 05:32:00;;;;;;;0.5;0.5;;;;;;;18.6;100.0;100730;;;;
2022/09/13 05:33:00;;;;;;;0.5;0.5;;;;;;;18.6;100.0;100730;;;;
2022/09/13 05:34:01;;;;;;;0.5;0.5;;;;;;;18.7;100.0;100730;;;;
2022/09/13 05:35:00;;;;;;;0.5;0.5;;;;;;;18.7;100.0;100730;;;;
2022/09/13 05:36:00;;;;;;;0.5;0.5;;;;;;;18.7;100.0;100730;;;;
2022/09/13 05:37:00;;;;;;;0.5;0.5;;;;;;;18.7;100.0;100730;;;;
2022/09/13 05:38:00;;;;;;;0.5;0.5;;;;;;;18.6;100.0;100740;;;;
2022/09/13 05:39:10;;;;;;;0.5;0.5;;;;;;;18.6;100.0;100740;;;;
2022/09/13 05:40:10;;;;;;;0.5;0.5;;;;;;;18.6;100.0;100740;;;;
2022/09/13 05:41:01;;;;;;;0.5;0.5;;;;;;;18.6;100.0;100740;;;;
2022/09/13 05:42:00;;;;;;;0.5;0.5;;;;;;;18.6;100.0;100730;;;;
2022/09/13 05:43:00;;;;;;;0.5;0.5;;;;;;;18.6;100.0;100730;;;;
2022/09/13 05:44:10;;;;;;;0.5;0.5;;;;;;;18.6;100.0;100740;;;;
2022/09/13 05:45:00;;;;;;;0.5;0.5;;;;;;;18.6;100.0;100740;;;;
2022/09/13 05:46:01;;;;;;;0.5;0.5;;;;;;;18.6;100.0;100740;;;;
2022/09/13 05:47:00;;;;;;;0.5;0.5;;;;;;;18.6;100.0;100740;;;;
2022/09/13 05:48:00;;;;;;;0.7;0.5;;;;;;;18.6;100.0;100740;;;;
2022/09/13 05:49:00;;;;;;;0.7;0.5;;;;;;;18.6;100.0;100740;;;;
2022/09/13 05:50:10;;;;;;;0.7;0.5;;;;;;;18.6;100.0;100740;;;;
2022/09/13 05:51:09;;;;;;;0.7;0.5;;;;;;;18.6;100.0;100740;;;;
2022/09/13 05:52:00;;;;;;;0.7;0.5;;;;;;;18.6;100.0;100740;;;;
2022/09/13 05:53:00;;;;;;;0.7;0.5;;;;;;;18.6;100.0;100740;;;;
2022/09/13 05:54:00;;;;;;;0.7;0.5;;;;;;;18.6;100.0;100740;;;;
2022/09/13 05:55:00;;;;;;;0.7;0.5;;;;;;;18.6;100.0;100740;;;;
2022/09/13 05:56:00;;;;;;;0.7;0.5;;;;;;;18.5;100.0;100740;;;;
2022/09/13 05:57:00;;;;;;;0.7;0.5;;;;;;;18.5;100.0;100740;;;;
2022/09/13 05:58:01;;;;;;;0.7;0.5;;;;;;;18.6;100.0;100740;;;;
2022/09/13 05:59:00;;;;;;;0.7;0.5;;;;;;;18.6;100.0;100740;;;;
2022/09/13 06:00:00;;;;;;;0.7;0.5;;;;;;;18.6;100.0;100740;;;;
2022/09/13 06:01:00;;;;;;;0.7;0.5;;;;;;;18.6;100.0;100740;;;;
2022/09/13 06:02:00;;;;;;;0.7;0.5;;;;;;;18.6;100.0;100740;;;;
2022/09/13 06:03:00;;;;;;;0.7;0.5;;;;;;;18.6;100.0;100740;;;;
2022/09/13 06:04:00;;;;;;;0.7;0.5;;;;;;;18.6;100.0;100730;;;;
2022/09/13 06:05:00;;;;;;;0.7;0.5;;;;;;;18.6;100.0;100730;;;;
2022/09/13 06:06:00;;;;;;;0.7;0.5;;;;;;;18.7;100.0;100730;;;;
2022/09/13 06:07:00;;;;;;;0.7;0.5;;;;;;;18.7;100.0;100730;;;;
2022/09/13 06:08:00;;;;;;;0.3;0.3;;;;;;;18.7;100.0;100740;;;;
2022/09/13 06:09:00;;;;;;;0.3;0.3;;;;;;;18.7;100.0;100740;;;;
2022/09/13 06:10:00;;;;;;;0.3;0.3;;;;;;;18.7;100.0;100730;;;;
2022/09/13 06:11:03;;;;;;;0.3;0.3;;;;;;;18.7;100.0;100730;;;;
2022/09/13 06:12:00;;;;;;;0.3;0.3;;;;;;;18.7;100.0;100740;;;;
2022/09/13 06:13:00;;;;;;;0.3;0.3;;;;;;;18.7;100.0;100740;;;;
2022/09/13 06:14:00;;;;;;;0.3;0.3;;;;;;;18.8;100.0;100740;;;;
2022/09/13 06:15:00;;;;;;;0.3;0.3;;;;;;;18.8;100.0;100740;;;;
2022/09/13 06:16:01;;;;;;;0.3;0.3;;;;;;;18.8;100.0;100740;;;;
2022/09/13 06:17:00;;;;;;;0.3;0.3;;;;;;;18.8;100.0;100740;;;;
2022/09/13 06:18:00;;;;;;;0.3;0.3;;;;;;;18.9;100.0;100740;;;;
2022/09/13 06:19:00;;;;;;;0.3;0.3;;;;;;;18.9;100.0;100740;;;;
2022/09/13 06:20:00;;;;;;;0.3;0.3;;;;;;;18.9;100.0;100740;;;;
2022/09/13 06:21:02;;;;;;;0.3;0.3;;;;;;;18.9;100.0;100740;;;;
2022/09/13 06:22:00;;;;;;;0.3;0.3;;;;;;;19.0;100.0;100740;;;;